Terminal Aerodrome Forecast
Issued by NWS

Home | Current Version | Previous Version | Text Only | Print | Product List | Glossary On
Versions: 1 2 3 4 5 6 7 8 9 10 11 12 13 14 15 16 17
214
FTUS42 KMLB 252331
TAFSFB
TAF
KSFB 252331Z 2600/2624 10008KT P6SM SCT050 SCT300
     FM260500 VRB03KT P6SM SCT300
     FM261400 24004KT P6SM SCT025 SCT300
     FM261900 19009KT P6SM SCT030 SCT300=

USA.gov is the U.S. government's official web portal to all federal, state and local government web resources and services.